createdAt,value
2023-02-01T00:00:50.918Z,2.72
2023-02-01T00:01:47.776Z,2.21
2023-02-01T00:02:44.619Z,2.84
2023-02-01T00:03:41.582Z,2.15
2023-02-01T00:04:41.484Z,2.94
2023-02-01T00:05:38.265Z,3.03
2023-02-01T00:06:35.044Z,2.98
2023-02-01T00:07:31.828Z,1.46
2023-02-01T00:08:29.184Z,3.03
2023-02-01T00:09:25.994Z,3.10
2023-02-01T00:10:23.024Z,3.06
2023-02-01T00:11:19.949Z,2.84
2023-02-01T00:12:16.771Z,2.96
2023-02-01T00:13:13.525Z,2.56
2023-02-01T00:14:10.469Z,0.93
2023-02-01T00:15:07.884Z,2.78
2023-02-01T00:16:20.395Z,2.74
2023-02-01T00:17:17.103Z,2.58
2023-02-01T00:18:14.557Z,2.28
2023-02-01T00:19:15.204Z,1.39
2023-02-01T00:20:12.182Z,3.02
2023-02-01T00:21:10.932Z,1.70
2023-02-01T00:22:07.677Z,0.93
2023-02-01T00:23:04.435Z,2.82
2023-02-01T00:24:01.245Z,3.42
2023-02-01T00:24:58.007Z,3.59
2023-02-01T00:25:54.822Z,3.06
2023-02-01T00:26:51.566Z,3.13
2023-02-01T00:27:51.704Z,3.14
2023-02-01T00:28:48.401Z,3.23
2023-02-01T00:29:46.137Z,2.64
2023-02-01T00:30:42.962Z,3.15
2023-02-01T00:31:40.123Z,3.27
2023-02-01T00:32:36.917Z,3.06
2023-02-01T00:33:34.033Z,2.82
2023-02-01T00:34:30.816Z,3.01
2023-02-01T00:35:27.660Z,2.96
2023-02-01T00:36:24.475Z,2.64
2023-02-01T00:37:21.231Z,2.71
2023-02-01T00:38:18.111Z,2.97
2023-02-01T00:39:15.519Z,2.19
2023-02-01T00:40:12.797Z,2.82
2023-02-01T00:41:15.335Z,2.25
2023-02-01T00:42:12.209Z,2.38
2023-02-01T00:43:09.072Z,2.78
2023-02-01T00:44:05.822Z,2.82
2023-02-01T00:45:02.888Z,2.70
2023-02-01T00:45:59.926Z,3.01
2023-02-01T00:46:56.770Z,2.96
2023-02-01T00:47:53.540Z,2.67
2023-02-01T00:48:50.907Z,3.11
2023-02-01T00:49:47.695Z,2.77
2023-02-01T00:50:44.865Z,2.24
2023-02-01T00:51:41.661Z,2.39
2023-02-01T00:52:41.289Z,2.14
2023-02-01T00:53:38.853Z,1.81
2023-02-01T00:54:36.873Z,2.24
2023-02-01T00:55:33.609Z,2.40
2023-02-01T00:56:30.503Z,2.48
2023-02-01T00:57:27.262Z,2.29
2023-02-01T00:58:27.505Z,0.99
2023-02-01T00:59:24.250Z,2.41
2023-02-01T01:00:21.265Z,2.40
2023-02-01T01:01:22.254Z,2.32
2023-02-01T01:02:19.114Z,2.32
2023-02-01T01:03:18.808Z,2.47
2023-02-01T01:04:15.565Z,2.21
2023-02-01T01:05:12.324Z,2.33
2023-02-01T01:06:12.291Z,2.59
2023-02-01T01:07:09.103Z,2.78
2023-02-01T01:08:05.916Z,2.90
2023-02-01T01:09:06.438Z,2.30
2023-02-01T01:10:03.587Z,0.60
2023-02-01T01:11:04.657Z,2.99
2023-02-01T01:12:04.219Z,2.99
2023-02-01T01:13:00.975Z,3.08
2023-02-01T01:13:59.656Z,2.93
2023-02-01T01:14:56.516Z,3.04
2023-02-01T01:15:53.337Z,1.93
2023-02-01T01:16:51.581Z,2.96
2023-02-01T01:17:48.353Z,2.82
2023-02-01T01:18:45.522Z,2.53
2023-02-01T01:19:42.394Z,2.85
2023-02-01T01:20:42.128Z,2.94
2023-02-01T01:21:39.417Z,3.13
2023-02-01T01:22:36.186Z,3.05
2023-02-01T01:23:33.651Z,2.92
2023-02-01T01:24:30.471Z,2.58
2023-02-01T01:25:27.259Z,2.07
2023-02-01T01:26:27.138Z,2.03
2023-02-01T01:27:24.549Z,2.83
2023-02-01T01:28:21.400Z,2.40
2023-02-01T01:29:18.142Z,2.09
2023-02-01T01:30:15.006Z,0.23
2023-02-01T01:31:13.600Z,2.40
2023-02-01T01:32:10.427Z,2.38
2023-02-01T01:33:07.332Z,2.51
2023-02-01T01:34:04.406Z,2.39
2023-02-01T01:35:01.188Z,2.41
2023-02-01T01:35:57.990Z,2.08
2023-02-01T01:36:54.836Z,1.36
2023-02-01T01:37:51.816Z,2.28
2023-02-01T01:38:48.999Z,1.12
2023-02-01T01:39:45.776Z,2.71
2023-02-01T01:40:47.157Z,2.70
2023-02-01T01:41:43.953Z,2.51
2023-02-01T01:42:42.978Z,0.51
2023-02-01T01:44:01.018Z,2.17
2023-02-01T01:45:23.818Z,2.72
2023-02-01T01:46:26.646Z,2.50
2023-02-01T01:47:24.544Z,2.57
2023-02-01T01:48:29.270Z,2.80
2023-02-01T01:49:27.738Z,2.56
2023-02-01T01:50:42.019Z,2.35
2023-02-01T01:51:48.854Z,1.15
2023-02-01T01:52:49.512Z,2.60
2023-02-01T01:53:54.775Z,2.48
2023-02-01T01:54:54.499Z,2.77
2023-02-01T01:55:54.683Z,3.00
2023-02-01T01:56:57.752Z,2.03
2023-02-01T01:58:06.580Z,2.94
2023-02-01T01:59:04.859Z,2.98
2023-02-01T02:00:09.946Z,2.92
2023-02-01T02:01:06.952Z,2.99
2023-02-01T02:02:05.389Z,2.59
2023-02-01T02:03:15.373Z,1.98
2023-02-01T02:04:12.273Z,2.13
2023-02-01T02:05:10.637Z,2.29
2023-02-01T02:06:21.515Z,1.92
2023-02-01T02:07:31.226Z,1.62
2023-02-01T02:08:29.097Z,2.64
2023-02-01T02:09:25.959Z,2.85
2023-02-01T02:10:42.758Z,2.45
2023-02-01T02:11:39.511Z,1.83
2023-02-01T02:12:36.291Z,2.13
2023-02-01T02:13:41.971Z,1.75
2023-02-01T02:14:40.060Z,2.23
2023-02-01T02:15:46.621Z,2.02
2023-02-01T02:17:05.086Z,1.21
2023-02-01T02:18:32.256Z,2.15
2023-02-01T02:19:44.045Z,2.50
2023-02-01T02:21:04.908Z,2.20
2023-02-01T02:22:40.072Z,2.00
2023-02-01T02:23:42.580Z,2.04
2023-02-01T02:24:39.264Z,2.16
2023-02-01T02:25:42.158Z,1.90
2023-02-01T02:27:27.903Z,1.87
2023-02-01T02:28:41.901Z,2.16
2023-02-01T02:30:15.612Z,0.37
2023-02-01T02:31:47.621Z,1.85
2023-02-01T02:33:14.380Z,1.37
2023-02-01T02:34:27.159Z,1.53
2023-02-01T02:35:41.408Z,1.78
2023-02-01T02:36:45.513Z,1.96
2023-02-01T02:38:02.889Z,2.14
2023-02-01T02:39:09.853Z,2.18
2023-02-01T02:40:09.994Z,2.10
2023-02-01T02:41:51.560Z,2.16
2023-02-01T02:43:13.370Z,2.09
2023-02-01T02:44:40.636Z,1.03
2023-02-01T02:46:14.884Z,1.78
2023-02-01T02:47:29.442Z,1.49
2023-02-01T02:48:49.338Z,1.95
2023-02-01T02:50:29.505Z,1.10
2023-02-01T02:51:56.131Z,2.26
2023-02-01T02:53:26.973Z,1.88
2023-02-01T02:54:51.787Z,1.85
2023-02-01T02:55:52.495Z,2.04
2023-02-01T02:57:11.298Z,1.79
2023-02-01T02:58:29.948Z,2.10
2023-02-01T02:59:48.124Z,1.55
2023-02-01T03:01:05.590Z,1.90
2023-02-01T03:02:21.407Z,2.36
2023-02-01T03:03:37.077Z,2.00
2023-02-01T03:04:33.834Z,2.16
2023-02-01T03:05:38.487Z,2.36
2023-02-01T03:06:35.579Z,2.22
2023-02-01T03:08:15.605Z,1.96
2023-02-01T03:09:27.909Z,1.78
2023-02-01T03:10:25.298Z,1.92
2023-02-01T03:11:22.216Z,1.85
2023-02-01T03:12:39.458Z,1.94
2023-02-01T03:13:51.289Z,2.08
2023-02-01T03:14:55.899Z,2.01
2023-02-01T03:15:59.600Z,2.26
2023-02-01T03:17:06.636Z,2.25
2023-02-01T03:18:12.959Z,1.74
2023-02-01T03:19:24.315Z,2.55
2023-02-01T03:20:21.651Z,2.15
2023-02-01T03:21:29.434Z,1.11
2023-02-01T03:22:32.621Z,2.00
2023-02-01T03:23:35.620Z,1.50
2023-02-01T03:24:40.185Z,1.99
2023-02-01T03:25:37.137Z,1.52
2023-02-01T03:26:41.943Z,1.56
2023-02-01T03:27:52.182Z,1.72
2023-02-01T03:29:14.724Z,2.33
2023-02-01T03:30:27.601Z,2.07
2023-02-01T03:31:25.449Z,1.97
2023-02-01T03:32:23.023Z,1.67
2023-02-01T03:33:25.365Z,1.97
2023-02-01T03:34:23.223Z,2.20
2023-02-01T03:35:38.703Z,2.02
2023-02-01T03:36:42.570Z,2.51
2023-02-01T03:37:39.654Z,2.64
2023-02-01T03:38:56.699Z,1.39
2023-02-01T03:40:01.945Z,2.29
2023-02-01T03:41:32.849Z,2.34
2023-02-01T03:42:39.781Z,1.69
2023-02-01T03:43:56.456Z,2.38
2023-02-01T03:45:08.452Z,2.54
2023-02-01T03:46:13.659Z,2.55
2023-02-01T03:47:21.177Z,2.72
2023-02-01T03:48:20.084Z,2.75
2023-02-01T03:49:29.100Z,1.98
2023-02-01T03:50:30.110Z,2.68
2023-02-01T03:51:27.570Z,1.86
2023-02-01T03:52:37.505Z,2.76
2023-02-01T03:53:37.938Z,2.70
2023-02-01T03:54:35.975Z,1.79
2023-02-01T03:55:33.709Z,3.05
2023-02-01T03:56:37.267Z,2.55
2023-02-01T03:57:40.361Z,2.70
2023-02-01T03:58:37.376Z,2.36
2023-02-01T03:59:34.140Z,1.87
2023-02-01T04:00:30.888Z,2.83
2023-02-01T04:01:30.821Z,1.71
2023-02-01T04:02:27.589Z,2.83
2023-02-01T04:03:27.038Z,2.41
2023-02-01T04:04:23.845Z,2.37
2023-02-01T04:05:21.563Z,2.64
2023-02-01T04:06:21.260Z,2.91
2023-02-01T04:07:18.089Z,2.98
2023-02-01T04:08:15.029Z,2.63
2023-02-01T04:09:11.813Z,2.83
2023-02-01T04:10:09.516Z,2.68
2023-02-01T04:11:06.417Z,2.56
2023-02-01T04:12:03.443Z,2.47
2023-02-01T04:13:00.614Z,2.97
2023-02-01T04:13:57.389Z,2.41
2023-02-01T04:14:54.118Z,2.81
2023-02-01T04:15:50.902Z,1.80
2023-02-01T04:16:47.786Z,3.12
2023-02-01T04:17:44.766Z,3.23
2023-02-01T04:18:41.675Z,2.61
2023-02-01T04:19:38.354Z,3.04
2023-02-01T04:20:35.099Z,2.81
2023-02-01T04:21:31.892Z,2.90
2023-02-01T04:22:29.818Z,2.82
2023-02-01T04:23:26.553Z,2.28
2023-02-01T04:24:23.260Z,2.80
2023-02-01T04:25:20.001Z,2.96
2023-02-01T04:26:17.372Z,3.32
2023-02-01T04:27:14.423Z,2.59
2023-02-01T04:28:11.245Z,3.35
2023-02-01T04:29:10.379Z,2.93
2023-02-01T04:30:10.900Z,2.02
2023-02-01T04:31:07.833Z,2.88
2023-02-01T04:32:04.900Z,3.10
2023-02-01T04:33:01.701Z,3.11
2023-02-01T04:33:58.809Z,2.83
2023-02-01T04:34:55.557Z,2.28
2023-02-01T04:35:52.543Z,2.30
2023-02-01T04:36:49.633Z,2.78
2023-02-01T04:37:46.387Z,2.44
2023-02-01T04:38:43.215Z,1.61
2023-02-01T04:39:40.057Z,2.94
2023-02-01T04:40:38.797Z,2.21
2023-02-01T04:41:35.640Z,3.09
2023-02-01T04:42:32.376Z,2.61
2023-02-01T04:43:29.131Z,2.01
2023-02-01T04:44:25.900Z,3.13
2023-02-01T04:45:22.741Z,3.05
2023-02-01T04:46:19.658Z,2.37
2023-02-01T04:47:16.800Z,2.82
2023-02-01T04:48:13.586Z,3.11
2023-02-01T04:49:10.956Z,2.86
2023-02-01T04:50:11.273Z,2.96
2023-02-01T04:51:08.184Z,2.19
2023-02-01T04:52:05.531Z,2.09
2023-02-01T04:53:02.293Z,2.96
2023-02-01T04:53:59.024Z,3.15
2023-02-01T04:54:59.320Z,2.23
2023-02-01T04:55:56.868Z,2.57
2023-02-01T04:56:53.653Z,1.94
2023-02-01T04:57:50.419Z,2.66
2023-02-01T04:58:47.207Z,2.63
2023-02-01T04:59:43.969Z,2.79
2023-02-01T05:00:40.948Z,2.94
2023-02-01T05:01:37.809Z,2.36
2023-02-01T05:02:34.688Z,2.25
2023-02-01T05:03:33.249Z,2.92
2023-02-01T05:04:30.054Z,2.89
2023-02-01T05:05:27.744Z,1.96
2023-02-01T05:06:24.773Z,2.57
2023-02-01T05:07:21.616Z,2.27
2023-02-01T05:08:18.382Z,1.00
2023-02-01T05:09:15.083Z,3.20
2023-02-01T05:10:11.811Z,2.78
2023-02-01T05:11:28.521Z,3.17
2023-02-01T05:12:43.731Z,3.12
2023-02-01T05:13:49.442Z,3.34
2023-02-01T05:14:46.286Z,2.86
2023-02-01T05:15:43.103Z,3.02
2023-02-01T05:16:39.999Z,2.37
2023-02-01T05:17:36.843Z,3.26
2023-02-01T05:18:33.704Z,3.35
2023-02-01T05:19:30.463Z,2.05
2023-02-01T05:20:27.292Z,3.31
2023-02-01T05:21:24.463Z,3.74
2023-02-01T05:22:21.277Z,3.20
2023-02-01T05:23:18.082Z,3.43
2023-02-01T05:24:17.419Z,3.49
2023-02-01T05:25:15.194Z,2.80
2023-02-01T05:26:12.014Z,2.78
2023-02-01T05:27:08.777Z,3.33
2023-02-01T05:28:05.696Z,3.79
2023-02-01T05:29:02.751Z,3.17
2023-02-01T05:29:59.521Z,2.65
2023-02-01T05:30:56.498Z,3.72
2023-02-01T05:31:53.532Z,3.66
2023-02-01T05:32:52.382Z,3.15
2023-02-01T05:33:49.180Z,3.68
2023-02-01T05:34:45.889Z,3.47
2023-02-01T05:35:42.655Z,2.56
2023-02-01T05:36:39.942Z,3.33
2023-02-01T05:37:36.933Z,3.26
2023-02-01T05:38:34.056Z,3.54
2023-02-01T05:39:30.789Z,3.94
2023-02-01T05:40:27.515Z,2.58
2023-02-01T05:41:24.677Z,3.88
2023-02-01T05:42:21.530Z,3.58
2023-02-01T05:43:18.272Z,4.11
2023-02-01T05:44:15.070Z,4.24
2023-02-01T05:45:12.237Z,3.88
2023-02-01T05:46:11.662Z,3.30
2023-02-01T05:47:08.952Z,2.95
2023-02-01T05:48:05.770Z,3.12
2023-02-01T05:49:02.566Z,3.34
2023-02-01T05:49:59.344Z,3.70
2023-02-01T05:50:56.182Z,3.11
2023-02-01T05:51:52.923Z,3.69
2023-02-01T05:52:52.484Z,3.49
2023-02-01T05:53:49.247Z,2.93
2023-02-01T05:54:48.033Z,3.35
2023-02-01T05:55:44.896Z,3.56
2023-02-01T05:56:41.885Z,2.90
2023-02-01T05:57:38.670Z,3.06
2023-02-01T05:58:35.489Z,3.31
2023-02-01T05:59:32.274Z,2.75
2023-02-01T06:00:29.242Z,3.82
2023-02-01T06:01:26.044Z,3.87
2023-02-01T06:02:25.146Z,3.23
2023-02-01T06:03:21.977Z,3.11
2023-02-01T06:04:18.756Z,3.40
2023-02-01T06:05:15.580Z,3.30
2023-02-01T06:06:12.297Z,3.87
2023-02-01T06:07:11.418Z,4.13
2023-02-01T06:08:08.558Z,3.36
2023-02-01T06:09:05.408Z,3.87
2023-02-01T06:10:02.154Z,4.21
2023-02-01T06:11:03.845Z,3.95
2023-02-01T06:12:02.140Z,4.01
2023-02-01T06:12:58.941Z,4.03
2023-02-01T06:13:56.469Z,4.05
2023-02-01T06:14:53.202Z,4.03
2023-02-01T06:15:50.037Z,2.96
2023-02-01T06:16:47.554Z,3.43
2023-02-01T06:17:47.643Z,3.84
2023-02-01T06:18:44.420Z,3.89
2023-02-01T06:19:41.773Z,2.64
2023-02-01T06:20:39.325Z,3.30
2023-02-01T06:21:37.426Z,3.59
2023-02-01T06:22:36.993Z,4.13
2023-02-01T06:23:33.816Z,3.03
2023-02-01T06:24:30.599Z,3.88
2023-02-01T06:25:27.405Z,4.10
2023-02-01T06:26:24.345Z,3.03
2023-02-01T06:27:21.338Z,4.17
2023-02-01T06:28:18.165Z,3.83
2023-02-01T06:29:15.075Z,4.06
2023-02-01T06:30:14.680Z,3.91
2023-02-01T06:31:11.837Z,3.85
2023-02-01T06:32:11.582Z,3.81
2023-02-01T06:33:08.292Z,3.76
2023-02-01T06:34:05.261Z,3.90
2023-02-01T06:35:02.111Z,3.96
2023-02-01T06:36:02.253Z,3.56
2023-02-01T06:36:59.290Z,3.99
2023-02-01T06:37:56.055Z,4.08
2023-02-01T06:38:53.194Z,2.34
2023-02-01T06:39:50.244Z,3.44
2023-02-01T06:40:53.863Z,4.20
2023-02-01T06:41:51.831Z,4.00
2023-02-01T06:42:49.992Z,4.51
2023-02-01T06:43:47.259Z,3.83
2023-02-01T06:44:44.173Z,4.03
2023-02-01T06:45:42.841Z,3.76
2023-02-01T06:46:39.699Z,3.96
2023-02-01T06:47:36.504Z,3.97
2023-02-01T06:48:33.941Z,4.08
2023-02-01T06:49:30.741Z,3.92
2023-02-01T06:50:29.073Z,4.02
2023-02-01T06:51:28.980Z,3.82
2023-02-01T06:52:25.806Z,4.14
2023-02-01T06:53:32.099Z,3.37
2023-02-01T06:54:29.455Z,3.34
2023-02-01T06:55:26.218Z,2.21
2023-02-01T06:56:23.513Z,4.43
2023-02-01T06:57:20.229Z,4.41
2023-02-01T06:58:16.949Z,4.36
2023-02-01T06:59:16.065Z,4.66
2023-02-01T07:00:14.672Z,3.90
2023-02-01T07:01:13.336Z,3.80
2023-02-01T07:02:12.440Z,3.91
2023-02-01T07:03:09.211Z,4.26
2023-02-01T07:04:06.090Z,4.47
2023-02-01T07:05:02.784Z,4.76
2023-02-01T07:06:00.008Z,4.32
2023-02-01T07:06:56.737Z,4.52
2023-02-01T07:07:53.514Z,4.33
2023-02-01T07:08:50.394Z,4.46
2023-02-01T07:09:47.167Z,4.14
2023-02-01T07:10:43.930Z,4.42
2023-02-01T07:11:44.212Z,4.18
2023-02-01T07:12:41.098Z,4.36
2023-02-01T07:13:39.141Z,4.40
2023-02-01T07:14:36.026Z,4.11
2023-02-01T07:15:32.978Z,4.63
2023-02-01T07:16:30.148Z,4.42
2023-02-01T07:17:26.941Z,3.79
2023-02-01T07:18:23.666Z,4.56
2023-02-01T07:19:20.441Z,3.82
2023-02-01T07:20:17.623Z,3.97
2023-02-01T07:21:14.506Z,3.94
2023-02-01T07:22:11.289Z,4.07
2023-02-01T07:23:11.124Z,4.23
2023-02-01T07:24:08.018Z,3.70
2023-02-01T07:25:06.654Z,3.87
2023-02-01T07:26:06.663Z,3.85
2023-02-01T07:27:03.469Z,4.37
2023-02-01T07:28:00.396Z,4.34
2023-02-01T07:28:57.287Z,4.34
2023-02-01T07:29:54.306Z,3.90
2023-02-01T07:30:52.127Z,4.24
2023-02-01T07:31:48.998Z,3.20
2023-02-01T07:32:45.945Z,2.84
2023-02-01T07:33:47.654Z,3.64
2023-02-01T07:34:44.709Z,4.17
2023-02-01T07:35:41.480Z,4.28
2023-02-01T07:36:38.273Z,3.31
2023-02-01T07:37:35.004Z,4.37
2023-02-01T07:38:32.079Z,3.84
2023-02-01T07:39:33.036Z,3.70
2023-02-01T07:40:31.317Z,3.85
2023-02-01T07:41:28.063Z,3.99
2023-02-01T07:42:24.830Z,4.24
2023-02-01T07:43:22.445Z,4.22
2023-02-01T07:44:23.643Z,4.07
2023-02-01T07:45:21.870Z,4.08
2023-02-01T07:46:18.950Z,2.64
2023-02-01T07:47:15.804Z,4.23
2023-02-01T07:48:12.515Z,2.05
2023-02-01T07:49:09.228Z,4.21
2023-02-01T07:50:06.037Z,3.91
2023-02-01T07:51:06.240Z,4.21
2023-02-01T07:52:03.365Z,4.52
2023-02-01T07:53:01.909Z,4.70
2023-02-01T07:53:58.831Z,4.68
2023-02-01T07:54:55.555Z,4.31
2023-02-01T07:55:52.436Z,4.59
2023-02-01T07:56:49.220Z,3.85
2023-02-01T07:57:46.199Z,4.56
2023-02-01T07:58:43.141Z,4.47
2023-02-01T08:00:02.677Z,4.45
2023-02-01T08:01:18.036Z,4.29
2023-02-01T08:02:14.869Z,4.40
2023-02-01T08:03:11.641Z,4.53
2023-02-01T08:04:12.282Z,4.01
2023-02-01T08:05:09.445Z,4.36
2023-02-01T08:06:07.482Z,4.33
2023-02-01T08:07:04.241Z,3.90
2023-02-01T08:08:10.267Z,4.24
2023-02-01T08:09:25.779Z,4.53
2023-02-01T08:10:22.784Z,4.86
2023-02-01T08:11:21.501Z,5.06
2023-02-01T08:12:18.350Z,4.99
2023-02-01T08:13:15.243Z,4.57
2023-02-01T08:14:12.042Z,5.02
2023-02-01T08:15:09.111Z,4.95
2023-02-01T08:16:09.558Z,5.11
2023-02-01T08:17:06.359Z,4.99
2023-02-01T08:18:03.416Z,4.44
2023-02-01T08:19:00.144Z,4.98
2023-02-01T08:19:59.902Z,4.81
2023-02-01T08:20:57.583Z,4.33
2023-02-01T08:21:54.354Z,5.03
2023-02-01T08:22:54.365Z,5.33
2023-02-01T08:23:51.961Z,4.67
2023-02-01T08:24:52.738Z,5.14
2023-02-01T08:25:51.758Z,5.28
2023-02-01T08:26:48.913Z,4.71
2023-02-01T08:27:46.554Z,4.64
2023-02-01T08:28:50.214Z,4.64
2023-02-01T08:29:47.056Z,5.14
2023-02-01T08:30:43.813Z,4.34
2023-02-01T08:31:41.948Z,4.45
2023-02-01T08:32:38.795Z,4.22
2023-02-01T08:33:36.875Z,3.61
2023-02-01T08:34:35.760Z,3.71
2023-02-01T08:35:42.769Z,4.63
2023-02-01T08:36:41.884Z,2.85
2023-02-01T08:37:38.687Z,4.73
2023-02-01T08:38:40.564Z,4.87
2023-02-01T08:39:37.793Z,3.83
2023-02-01T08:40:34.570Z,4.68
2023-02-01T08:41:31.443Z,4.87
2023-02-01T08:42:47.009Z,4.62
2023-02-01T08:43:44.676Z,4.82
2023-02-01T08:44:41.468Z,4.82
2023-02-01T08:45:38.327Z,4.34
2023-02-01T08:46:59.062Z,5.13
2023-02-01T08:47:57.400Z,4.18
2023-02-01T08:48:54.199Z,4.62
2023-02-01T08:49:50.999Z,5.19
2023-02-01T08:50:47.753Z,5.33
2023-02-01T08:51:44.511Z,5.26
2023-02-01T08:52:41.257Z,5.67
2023-02-01T08:53:38.923Z,5.76
2023-02-01T08:54:35.688Z,5.79
2023-02-01T08:55:32.587Z,6.03
2023-02-01T08:56:29.428Z,5.93
2023-02-01T08:57:26.574Z,5.87
2023-02-01T08:58:23.645Z,5.91
2023-02-01T09:09:23.603Z,4.86
2023-02-01T09:10:34.400Z,5.00
2023-02-01T09:11:31.714Z,6.02
2023-02-01T09:12:30.262Z,5.23
2023-02-01T09:13:27.577Z,4.42
2023-02-01T09:14:24.404Z,5.14
2023-02-01T09:15:21.195Z,4.42
2023-02-01T09:16:18.051Z,5.28
2023-02-01T09:17:15.066Z,5.49
2023-02-01T09:18:11.864Z,5.56
2023-02-01T09:19:24.781Z,5.36
2023-02-01T09:20:25.464Z,5.67
2023-02-01T09:21:22.523Z,5.58
2023-02-01T09:22:19.306Z,5.58
2023-02-01T09:23:16.030Z,6.01
2023-02-01T09:24:14.206Z,5.08
2023-02-01T09:25:11.114Z,5.79
2023-02-01T09:26:07.977Z,5.39
2023-02-01T09:27:04.903Z,6.04
2023-02-01T09:28:01.678Z,6.33
2023-02-01T09:28:58.501Z,5.55
2023-02-01T09:29:55.316Z,5.92
2023-02-01T09:30:57.710Z,5.74
2023-02-01T09:32:03.439Z,5.69
2023-02-01T09:33:00.992Z,5.21
2023-02-01T09:33:57.978Z,6.61
2023-02-01T09:34:54.755Z,6.47
2023-02-01T09:35:57.628Z,5.99
2023-02-01T09:36:54.522Z,5.46
2023-02-01T09:37:51.246Z,6.32
2023-02-01T09:38:52.845Z,6.21
2023-02-01T09:39:49.869Z,5.80
2023-02-01T09:40:48.498Z,5.64
2023-02-01T09:41:56.360Z,6.33
2023-02-01T09:43:17.458Z,6.07
2023-02-01T09:44:42.392Z,5.84
2023-02-01T10:00:52.865Z,5.13
2023-02-01T10:01:49.739Z,5.52
2023-02-01T10:02:46.674Z,4.44
2023-02-01T10:03:43.684Z,5.56
2023-02-01T10:04:41.051Z,5.66
2023-02-01T10:05:46.456Z,5.97
2023-02-01T10:07:04.057Z,6.15
2023-02-01T10:08:34.687Z,6.27
2023-02-01T10:09:43.954Z,6.48
2023-02-01T10:10:51.708Z,6.38
2023-02-01T10:12:17.887Z,6.70
2023-02-01T10:13:55.454Z,6.64
2023-02-01T10:15:21.163Z,6.36
2023-02-01T10:16:29.250Z,5.27
2023-02-01T10:18:03.675Z,6.01
2023-02-01T10:19:16.206Z,5.98
2023-02-01T10:20:22.487Z,5.98
2023-02-01T10:21:48.236Z,5.78
2023-02-01T10:23:16.012Z,6.08
2023-02-01T10:24:30.255Z,6.22
2023-02-01T10:25:44.345Z,5.80
2023-02-01T10:26:53.867Z,5.85
2023-02-01T10:27:51.200Z,5.38
2023-02-01T10:28:52.661Z,6.36
2023-02-01T10:29:56.822Z,5.76
2023-02-01T10:30:59.795Z,6.30
2023-02-01T10:31:56.990Z,5.44
2023-02-01T10:33:02.521Z,5.56
2023-02-01T10:34:02.541Z,6.32
2023-02-01T10:35:10.918Z,6.60
2023-02-01T10:36:41.610Z,6.53
2023-02-01T10:37:38.707Z,6.88
2023-02-01T10:38:35.718Z,6.52
2023-02-01T10:39:32.498Z,5.97
2023-02-01T10:40:29.793Z,6.17
2023-02-01T10:41:34.333Z,6.46
2023-02-01T10:42:32.528Z,6.27
2023-02-01T10:43:30.087Z,5.87
2023-02-01T10:53:50.350Z,5.14
2023-02-01T10:54:47.234Z,6.54
2023-02-01T10:55:46.804Z,7.03
2023-02-01T10:56:46.779Z,7.01
2023-02-01T10:57:55.700Z,6.74
2023-02-01T10:59:06.221Z,7.32
2023-02-01T11:00:19.622Z,7.14
2023-02-01T11:01:36.404Z,5.90
2023-02-01T11:02:36.187Z,6.72
2023-02-01T11:03:43.416Z,7.03
2023-02-01T11:04:40.326Z,6.82
2023-02-01T11:05:48.805Z,6.33
2023-02-01T11:06:48.612Z,6.31
2023-02-01T11:08:00.687Z,6.47
2023-02-01T11:09:09.609Z,6.70
2023-02-01T11:10:07.450Z,5.41
2023-02-01T11:11:07.290Z,6.23
2023-02-01T11:12:04.439Z,6.04
2023-02-01T11:13:04.636Z,6.61
2023-02-01T11:14:15.077Z,6.52
2023-02-01T11:15:30.149Z,6.62
2023-02-01T11:16:35.268Z,6.43
2023-02-01T11:17:41.026Z,6.36
2023-02-01T11:18:39.384Z,5.49
2023-02-01T11:32:01.395Z,6.33
2023-02-01T11:33:00.120Z,6.76
2023-02-01T11:34:07.431Z,6.82
2023-02-01T11:35:07.010Z,6.90
2023-02-01T11:36:32.662Z,6.69
2023-02-01T11:37:35.408Z,6.66
2023-02-01T11:38:34.444Z,6.29
2023-02-01T11:39:34.488Z,6.65
2023-02-01T11:40:39.409Z,5.97
2023-02-01T11:41:43.545Z,6.75
2023-02-01T11:42:58.193Z,6.34
2023-02-01T11:43:57.979Z,6.20
2023-02-01T11:45:19.699Z,6.43
2023-02-01T11:46:26.034Z,5.42
2023-02-01T11:47:25.833Z,6.27
2023-02-01T11:48:27.333Z,5.35
2023-02-01T11:49:28.120Z,6.26
2023-02-01T11:51:13.576Z,6.05
2023-02-01T11:52:16.241Z,6.49
2023-02-01T11:53:25.108Z,6.65
2023-02-01T11:54:45.079Z,6.86
2023-02-01T11:56:16.859Z,6.87
2023-02-01T11:57:55.584Z,7.13
2023-02-01T11:59:21.588Z,7.23
2023-02-01T12:00:47.763Z,6.75
2023-02-01T12:01:50.222Z,6.89
2023-02-01T12:03:13.355Z,6.80
2023-02-01T12:04:47.890Z,6.62
2023-02-01T12:06:02.976Z,6.87
2023-02-01T12:07:43.422Z,6.58
2023-02-01T12:08:59.751Z,6.73
2023-02-01T12:09:56.525Z,6.85
2023-02-01T12:11:24.724Z,6.87
2023-02-01T12:12:37.857Z,6.66
2023-02-01T12:13:48.518Z,6.80
2023-02-01T12:15:08.352Z,6.77
2023-02-01T12:16:36.363Z,6.80
2023-02-01T12:17:57.435Z,6.79
2023-02-01T12:19:21.312Z,6.93
2023-02-01T12:20:52.171Z,7.01
2023-02-01T12:22:23.523Z,6.97
2023-02-01T12:23:50.938Z,7.10
2023-02-01T12:25:18.859Z,7.16
2023-02-01T12:26:30.520Z,7.19
2023-02-01T12:27:45.848Z,7.24
2023-02-01T12:29:01.042Z,6.87
2023-02-01T12:30:18.198Z,6.66
2023-02-01T12:31:43.080Z,6.90
2023-02-01T12:32:39.876Z,7.07
2023-02-01T12:33:51.553Z,7.11
2023-02-01T12:35:14.081Z,7.09
2023-02-01T12:36:44.868Z,5.78
2023-02-01T12:37:56.968Z,6.98
2023-02-01T12:38:56.357Z,6.95
2023-02-01T12:40:11.867Z,6.91
2023-02-01T12:41:39.737Z,6.99
2023-02-01T12:42:54.755Z,6.88
2023-02-01T12:44:09.326Z,7.16
2023-02-01T12:45:32.677Z,7.42
2023-02-01T12:46:38.001Z,7.23
2023-02-01T12:48:07.524Z,7.42
2023-02-01T12:49:18.174Z,6.94
2023-02-01T12:50:24.354Z,7.01
2023-02-01T12:51:27.908Z,6.88
2023-02-01T12:52:34.465Z,7.48
2023-02-01T12:53:41.523Z,6.56
2023-02-01T12:54:41.355Z,7.51
2023-02-01T12:55:51.469Z,7.79
2023-02-01T12:57:04.143Z,7.50
2023-02-01T12:58:18.531Z,7.54
2023-02-01T12:59:44.764Z,7.55
2023-02-01T13:00:48.376Z,7.40
2023-02-01T13:01:57.626Z,7.43
2023-02-01T13:03:06.413Z,7.31
2023-02-01T13:04:12.369Z,7.23
2023-02-01T13:05:21.760Z,7.29
2023-02-01T13:06:27.342Z,5.85
2023-02-01T13:07:32.215Z,6.04
2023-02-01T13:08:38.029Z,7.18
2023-02-01T13:09:46.289Z,7.39
2023-02-01T13:11:04.304Z,7.13
2023-02-01T13:12:17.744Z,6.92
2023-02-01T13:13:31.333Z,7.13
2023-02-01T13:15:10.607Z,7.50
2023-02-01T13:16:31.661Z,7.30
2023-02-01T13:17:33.330Z,7.25
2023-02-01T13:18:38.502Z,7.09
2023-02-01T13:19:53.953Z,7.09
2023-02-01T13:21:15.568Z,6.99
2023-02-01T13:22:26.555Z,7.13
2023-02-01T13:23:37.997Z,7.27
2023-02-01T13:25:14.965Z,6.83
2023-02-01T13:26:12.254Z,7.32
2023-02-01T13:27:13.771Z,6.64
2023-02-01T13:28:23.881Z,7.21
2023-02-01T13:29:22.089Z,6.91
2023-02-01T13:30:31.420Z,6.39
2023-02-01T13:31:52.744Z,7.38
2023-02-01T13:33:51.434Z,7.28
2023-02-01T13:34:42.735Z,7.34
2023-02-01T13:36:14.335Z,7.26
2023-02-01T13:37:49.224Z,7.49
2023-02-01T13:39:13.979Z,7.51
2023-02-01T13:40:19.517Z,7.33
2023-02-01T13:41:27.907Z,7.46
2023-02-01T13:42:32.634Z,6.64
2023-02-01T13:43:32.508Z,7.38
2023-02-01T13:44:43.965Z,7.53
2023-02-01T13:45:49.657Z,6.34
2023-02-01T13:46:48.683Z,7.57
2023-02-01T13:47:50.927Z,7.37
2023-02-01T13:49:05.703Z,7.65
2023-02-01T13:50:26.692Z,7.72
2023-02-01T13:51:45.484Z,7.41
2023-02-01T13:52:51.656Z,7.67
2023-02-01T13:53:50.207Z,6.67
2023-02-01T13:54:46.967Z,7.45
2023-02-01T13:55:56.491Z,7.17
2023-02-01T13:56:54.440Z,6.66
2023-02-01T13:58:02.654Z,7.20
2023-02-01T13:59:37.429Z,7.54
2023-02-01T14:00:42.011Z,6.92
2023-02-01T14:01:39.726Z,7.60
2023-02-01T14:02:39.683Z,7.61
2023-02-01T14:03:47.991Z,7.66
2023-02-01T14:04:51.148Z,7.62
2023-02-01T14:05:48.089Z,7.47
2023-02-01T14:06:46.159Z,7.10
2023-02-01T14:08:10.409Z,7.70
2023-02-01T14:09:34.762Z,7.54
2023-02-01T14:10:57.092Z,7.54
2023-02-01T14:11:58.913Z,7.48
2023-02-01T14:13:06.376Z,7.22
2023-02-01T14:14:18.417Z,7.76
2023-02-01T14:15:28.729Z,7.49
2023-02-01T14:16:26.804Z,6.66
2023-02-01T14:17:40.448Z,7.55
2023-02-01T14:18:38.208Z,7.48
2023-02-01T14:19:35.499Z,7.44
2023-02-01T14:20:44.742Z,7.72
2023-02-01T14:21:57.932Z,7.66
2023-02-01T14:23:07.096Z,7.11
2023-02-01T14:24:28.698Z,7.44
2023-02-01T14:25:26.114Z,7.01
2023-02-01T14:26:50.858Z,7.20
2023-02-01T14:27:47.868Z,7.16
2023-02-01T14:28:58.962Z,7.60
2023-02-01T14:30:01.511Z,7.32
2023-02-01T14:31:00.783Z,7.50
2023-02-01T14:32:20.761Z,7.42
2023-02-01T14:33:27.707Z,7.47
2023-02-01T14:34:46.172Z,7.21
2023-02-01T14:35:43.093Z,7.10
2023-02-01T14:36:52.010Z,6.42
2023-02-01T14:37:59.457Z,6.68
2023-02-01T14:38:56.568Z,7.21
2023-02-01T14:40:04.085Z,6.47
2023-02-01T14:41:35.748Z,6.58
2023-02-01T14:42:35.537Z,7.26
2023-02-01T14:44:11.110Z,7.33
2023-02-01T14:45:20.369Z,7.12
2023-02-01T14:46:17.291Z,7.08
2023-02-01T14:47:25.938Z,7.21
2023-02-01T14:48:25.798Z,7.48
2023-02-01T14:49:24.482Z,7.37
2023-02-01T14:50:51.924Z,7.27
2023-02-01T14:51:48.743Z,6.72